Time;durP1;ratioP1;P1;durP2;ratioP2;P2;SDS_P1;SDS_P2;PMS_P1;PMS_P2;Temp;Humidity;BMP_temperature;BMP_pressure;BME280_temperature;BME280_humidity;BME280_pressure;Samples;Min_cycle;Max_cycle;Signal;HPM_P1;HPM_P2
2021/11/13 00:01:31;;;;;;;1.77;1.60;;;;;;;4.23;78.03;98666.00;5050555;28;20122;-63
2021/11/13 00:03:58;;;;;;;1.95;1.73;;;;;;;4.30;77.40;98673.84;5051794;28;20048;-64
2021/11/13 00:06:24;;;;;;;2.40;2.08;;;;;;;4.32;77.77;98664.75;5051938;28;20044;-64
2021/11/13 00:08:50;;;;;;;2.65;2.10;;;;;;;4.33;76.71;98673.44;5050229;28;20418;-63
2021/11/13 00:11:16;;;;;;;2.35;2.00;;;;;;;4.37;77.44;98681.66;5051707;28;20132;-62
2021/11/13 00:13:42;;;;;;;2.90;2.20;;;;;;;4.38;77.34;98680.66;5050081;28;20410;-63
2021/11/13 00:16:08;;;;;;;4.00;2.60;;;;;;;4.39;77.46;98684.88;5050154;28;20052;-62
2021/11/13 00:18:35;;;;;;;5.25;3.15;;;;;;;4.42;76.86;98687.09;5051471;28;20504;-64
2021/11/13 00:21:05;;;;;;;2.88;1.83;;;;;;;4.38;77.45;98691.94;5033401;28;20414;-64
2021/11/13 00:23:32;;;;;;;3.08;2.40;;;;;;;4.40;77.12;98697.78;5051147;28;20510;-64
2021/11/13 00:25:58;;;;;;;2.40;1.70;;;;;;;4.36;76.43;98686.13;5033576;28;20055;-62
2021/11/13 00:28:26;;;;;;;2.60;1.90;;;;;;;4.32;77.29;98696.25;5051358;28;20410;-63
2021/11/13 00:30:52;;;;;;;2.75;2.17;;;;;;;4.30;77.27;98703.53;5050111;28;20052;-63
2021/11/13 00:33:18;;;;;;;2.38;1.80;;;;;;;4.28;77.39;98699.50;5051297;28;20091;-63
2021/11/13 00:35:44;;;;;;;2.83;2.05;;;;;;;4.31;77.02;98712.97;5049879;28;20427;-63
2021/11/13 00:38:10;;;;;;;3.35;2.50;;;;;;;4.31;77.68;98712.19;5051014;28;20083;-64
2021/11/13 00:40:36;;;;;;;4.20;3.00;;;;;;;4.35;77.37;98708.09;5051261;28;20076;-63
2021/11/13 00:43:02;;;;;;;2.53;1.83;;;;;;;4.36;77.13;98714.19;5051204;28;20048;-64
2021/11/13 00:45:28;;;;;;;1.95;1.60;;;;;;;4.36;77.25;98720.22;5051369;28;20087;-62
2021/11/13 00:47:55;;;;;;;1.17;1.08;;;;;;;4.35;77.10;98723.84;5050915;28;20052;-63
2021/11/13 00:50:21;;;;;;;2.08;1.50;;;;;;;4.31;77.20;98725.31;5051248;28;20049;-62
2021/11/13 00:52:47;;;;;;;2.22;1.77;;;;;;;4.38;77.29;98727.88;5054089;28;20045;-65
2021/11/13 00:55:15;;;;;;;1.77;1.13;;;;;;;4.35;77.51;98744.84;5055316;28;20101;-63
2021/11/13 00:57:42;;;;;;;1.70;1.60;;;;;;;4.35;77.26;98744.03;5055239;28;20043;-63
2021/11/13 01:00:09;;;;;;;1.40;1.30;;;;;;;4.24;77.82;98748.97;5053817;28;20065;-62
2021/11/13 01:02:35;;;;;;;1.67;1.58;;;;;;;4.24;77.35;98743.72;5054550;28;20052;-62
2021/11/13 01:05:01;;;;;;;2.20;1.70;;;;;;;4.32;76.81;98751.34;5054924;28;20036;-63
2021/11/13 01:07:29;;;;;;;1.50;1.40;;;;;;;4.26;77.43;98757.41;5053506;28;20548;-63
2021/11/13 01:09:54;;;;;;;1.90;1.50;;;;;;;4.29;77.38;98761.44;5053600;28;20041;-63
2021/11/13 01:12:21;;;;;;;2.53;1.70;;;;;;;4.25;77.09;98753.19;5055039;28;20049;-62
2021/11/13 01:14:47;;;;;;;1.40;1.30;;;;;;;4.26;77.24;98760.03;5055070;28;20044;-63
2021/11/13 01:17:14;;;;;;;1.88;1.40;;;;;;;4.29;76.65;98762.25;5053213;28;20131;-63
2021/11/13 01:19:42;;;;;;;3.55;1.80;;;;;;;4.25;77.44;98771.56;5054917;28;20052;-65
2021/11/13 01:22:09;;;;;;;1.33;1.17;;;;;;;4.21;77.10;98764.34;5054993;28;20091;-64
2021/11/13 01:24:35;;;;;;;2.72;2.00;;;;;;;4.24;77.48;98769.16;5054654;28;20426;-64
2021/11/13 01:27:00;;;;;;;5.07;2.10;;;;;;;4.25;76.96;98776.00;5054848;28;20041;-63
2021/11/13 01:29:27;;;;;;;3.58;1.85;;;;;;;4.23;76.55;98764.91;5054732;28;20044;-62
2021/11/13 01:31:53;;;;;;;1.83;1.73;;;;;;;4.24;77.36;98775.19;5054435;28;20589;-63
2021/11/13 01:34:19;;;;;;;2.78;1.98;;;;;;;4.19;77.57;98790.75;5036774;28;20086;-64
2021/11/13 01:36:46;;;;;;;1.52;1.42;;;;;;;4.24;76.67;98800.63;5054869;28;20049;-63
2021/11/13 01:39:11;;;;;;;2.17;1.48;;;;;;;4.22;77.58;98797.41;5054079;28;20051;-63
2021/11/13 01:41:37;;;;;;;1.70;1.58;;;;;;;4.22;77.55;98819.19;5054742;28;20081;-62
2021/11/13 01:44:06;;;;;;;1.50;1.40;;;;;;;4.25;77.48;98804.88;5054067;28;20043;-63
2021/11/13 01:46:34;;;;;;;1.88;1.50;;;;;;;4.25;77.45;98813.53;5054619;28;20052;-62
2021/11/13 01:49:00;;;;;;;1.77;1.55;;;;;;;4.24;76.90;98811.13;5052738;28;20044;-64
2021/11/13 01:51:29;;;;;;;2.47;1.67;;;;;;;4.19;76.94;98817.00;5052792;28;20045;-63
2021/11/13 01:53:57;;;;;;;3.80;1.90;;;;;;;4.24;77.50;98817.19;5053665;28;20103;-62
2021/11/13 01:56:23;;;;;;;3.60;2.25;;;;;;;4.24;77.30;98826.88;5054091;28;20087;-62
2021/11/13 01:58:53;;;;;;;2.42;1.83;;;;;;;4.18;77.68;98841.63;5052653;28;20072;-63
2021/11/13 02:01:20;;;;;;;1.30;1.20;;;;;;;4.09;78.40;98835.03;5052509;28;20049;-62
2021/11/13 02:03:48;;;;;;;6.35;3.22;;;;;;;4.07;78.18;98837.84;5052768;28;20094;-62
2021/11/13 02:06:15;;;;;;;2.45;1.80;;;;;;;4.08;78.45;98849.94;5054195;28;20140;-62
2021/11/13 02:08:42;;;;;;;4.32;2.53;;;;;;;4.06;78.39;98846.72;5053655;28;20114;-62
2021/11/13 02:11:09;;;;;;;3.67;1.80;;;;;;;4.02;77.79;98856.00;5053958;28;20049;-63
2021/11/13 02:13:35;;;;;;;5.60;2.88;;;;;;;4.04;78.62;98861.06;5053668;28;20380;-65
2021/11/13 02:16:03;;;;;;;2.53;1.77;;;;;;;4.05;78.60;98862.66;5053951;28;20049;-63
2021/11/13 02:18:29;;;;;;;3.35;2.00;;;;;;;3.99;78.88;98871.34;5052437;28;20415;-62
2021/11/13 02:20:55;;;;;;;4.70;2.08;;;;;;;4.03;78.73;98873.38;5053730;28;20044;-64
2021/11/13 02:23:23;;;;;;;2.92;2.03;;;;;;;4.06;78.38;98883.44;5053401;28;20061;-63
2021/11/13 02:25:50;;;;;;;1.90;1.50;;;;;;;4.03;78.64;98877.78;5052345;28;20493;-62
2021/11/13 02:28:19;;;;;;;2.15;1.60;;;;;;;4.07;79.11;98890.28;5053553;28;20040;-63
2021/11/13 02:30:46;;;;;;;2.08;1.73;;;;;;;4.07;78.38;98890.28;5035675;28;20084;-62
2021/11/13 02:33:13;;;;;;;3.13;2.10;;;;;;;4.06;78.13;98893.94;5053051;28;20037;-63
2021/11/13 02:35:39;;;;;;;2.55;1.92;;;;;;;4.09;78.85;98895.34;5053560;28;20048;-64
2021/11/13 02:38:12;;;;;;;1.65;1.52;;;;;;;4.05;78.57;98894.13;5053371;28;20383;-64
2021/11/13 02:40:41;;;;;;;1.65;1.55;;;;;;;4.05;79.04;98900.19;5053308;28;20495;-63
2021/11/13 02:43:07;;;;;;;1.92;1.73;;;;;;;4.03;79.25;98917.97;5052039;28;20135;-63
2021/11/13 02:45:34;;;;;;;2.05;1.60;;;;;;;3.96;79.16;98916.34;5053433;28;20401;-63
2021/11/13 02:48:02;;;;;;;2.00;1.70;;;;;;;3.96;79.37;98911.91;5051693;28;20106;-63
2021/11/13 02:50:28;;;;;;;2.60;1.42;;;;;;;4.04;79.44;98916.13;5053149;28;20041;-63
2021/11/13 02:52:57;;;;;;;2.50;1.98;;;;;;;3.97;79.55;98924.03;5053015;28;20037;-64
2021/11/13 02:55:23;;;;;;;2.55;2.00;;;;;;;4.02;79.86;98934.69;5051907;28;20135;-63
2021/11/13 02:57:50;;;;;;;6.40;3.13;;;;;;;4.01;79.89;98933.09;5052728;28;20041;-62
2021/11/13 03:00:18;;;;;;;1.92;1.55;;;;;;;3.97;79.89;98945.00;5053007;28;20041;-63
2021/11/13 03:02:44;;;;;;;2.30;1.80;;;;;;;3.95;80.16;98940.97;5051351;28;20041;-63
2021/11/13 03:05:32;;;;;;;5.95;2.58;;;;;;;3.93;80.26;98950.84;5034570;28;20056;-64
2021/11/13 03:08:01;;;;;;;6.18;3.30;;;;;;;3.91;80.10;98948.41;5051379;28;20071;-63
2021/11/13 03:10:30;;;;;;;3.53;2.08;;;;;;;3.98;79.91;98964.16;5052524;28;20048;-63
2021/11/13 03:12:56;;;;;;;4.60;2.10;;;;;;;3.93;80.52;98967.38;5052335;28;20051;-63
2021/11/13 03:15:23;;;;;;;4.07;2.30;;;;;;;3.97;80.27;98960.75;5050967;28;20052;-64
2021/11/13 03:17:51;;;;;;;3.33;2.15;;;;;;;3.88;80.90;98959.31;5034451;28;20045;-61
2021/11/13 03:20:20;;;;;;;2.88;2.08;;;;;;;3.87;80.41;98963.75;5051342;28;20383;-63
2021/11/13 03:22:46;;;;;;;3.17;2.05;;;;;;;3.88;80.65;98975.06;5051106;28;20044;-62
2021/11/13 03:25:20;;;;;;;3.63;1.90;;;;;;;3.90;80.86;98970.41;5051308;28;20052;-63
2021/11/13 03:27:51;;;;;;;2.75;2.20;;;;;;;3.89;79.82;98978.50;5052148;28;20045;-63
2021/11/13 03:30:18;;;;;;;2.65;1.90;;;;;;;3.93;80.25;98975.25;5052221;28;20041;-63
2021/11/13 03:32:44;;;;;;;4.32;2.30;;;;;;;3.94;80.04;98989.16;5051881;28;20085;-63
2021/11/13 03:35:15;;;;;;;4.65;2.90;;;;;;;3.88;80.11;98985.53;5034314;28;20097;-63
2021/11/13 03:37:43;;;;;;;2.13;1.80;;;;;;;3.87;80.00;98994.44;5052060;28;20202;-62
2021/11/13 03:40:10;;;;;;;4.82;2.75;;;;;;;3.94;80.62;98997.03;5050792;28;20090;-65
2021/11/13 03:42:36;;;;;;;3.30;2.33;;;;;;;3.86;80.20;98996.25;5051767;28;20132;-64
2021/11/13 03:45:03;;;;;;;2.88;2.10;;;;;;;3.88;80.29;98993.41;5051885;28;20552;-62
2021/11/13 03:47:29;;;;;;;1.92;1.73;;;;;;;3.91;79.38;99005.31;5050241;28;20462;-63
2021/11/13 03:49:55;;;;;;;3.15;2.10;;;;;;;3.87;79.84;99012.78;5050388;28;20138;-62
2021/11/13 03:52:21;;;;;;;3.40;2.20;;;;;;;3.90;79.39;99014.19;5050207;28;20056;-64
2021/11/13 03:54:47;;;;;;;3.83;2.50;;;;;;;3.91;79.76;99024.47;5051652;28;20041;-64
2021/11/13 03:57:13;;;;;;;2.28;1.98;;;;;;;3.93;79.12;99029.53;5050482;28;20051;-62
2021/11/13 03:59:38;;;;;;;2.42;1.80;;;;;;;3.93;79.34;99022.47;5034126;28;20036;-63
2021/11/13 04:02:04;;;;;;;3.00;2.22;;;;;;;3.95;79.00;99033.56;5051969;28;20049;-62
2021/11/13 04:04:30;;;;;;;5.15;2.78;;;;;;;3.97;78.70;99036.78;5050623;28;20060;-63
2021/11/13 04:06:56;;;;;;;3.00;2.20;;;;;;;3.94;79.03;99044.22;5052112;28;20441;-62
2021/11/13 04:09:22;;;;;;;3.22;2.15;;;;;;;3.96;78.34;99047.47;5051192;28;20502;-63
2021/11/13 04:11:47;;;;;;;3.22;2.20;;;;;;;3.97;78.58;99044.66;5051802;28;20474;-63
2021/11/13 04:14:13;;;;;;;3.60;2.50;;;;;;;3.95;78.38;99051.13;5050052;28;20533;-64
2021/11/13 04:16:39;;;;;;;2.70;2.28;;;;;;;3.94;78.79;99059.97;5050213;28;20091;-64
2021/11/13 04:19:10;;;;;;;4.70;3.05;;;;;;;3.94;78.66;99062.59;5050281;28;20043;-62
2021/11/13 04:21:39;;;;;;;2.42;1.95;;;;;;;3.91;77.93;99073.50;5050329;28;20426;-63
2021/11/13 04:24:06;;;;;;;3.13;2.40;;;;;;;3.87;78.62;99070.47;5051068;28;20118;-64
2021/11/13 04:26:32;;;;;;;5.28;2.42;;;;;;;3.89;79.10;99070.28;5049527;28;20475;-63
2021/11/13 04:28:58;;;;;;;3.05;2.50;;;;;;;3.92;79.04;99060.19;5051090;28;20502;-63
2021/11/13 04:31:24;;;;;;;3.92;2.20;;;;;;;3.92;78.76;99077.75;5050086;28;20052;-63
2021/11/13 04:33:55;;;;;;;2.78;1.80;;;;;;;3.89;78.70;99072.91;5051335;28;20037;-64
2021/11/13 04:36:24;;;;;;;4.32;2.30;;;;;;;3.92;78.30;99093.47;5051410;28;20053;-63
2021/11/13 04:38:51;;;;;;;2.35;2.15;;;;;;;3.95;78.34;99075.50;5033850;28;20079;-65
2021/11/13 04:41:17;;;;;;;4.00;2.15;;;;;;;4.01;78.58;99090.44;5049939;28;20123;-64
2021/11/13 04:43:43;;;;;;;2.92;2.17;;;;;;;4.02;78.01;99099.91;5033350;28;20602;-62
2021/11/13 04:46:09;;;;;;;4.07;2.30;;;;;;;3.97;78.53;99106.78;5051157;28;20228;-63
2021/11/13 04:48:35;;;;;;;3.20;2.00;;;;;;;3.94;78.35;99109.78;5049934;28;20139;-64
2021/11/13 04:51:01;;;;;;;2.42;1.90;;;;;;;3.91;78.22;99102.34;5051313;28;20129;-64
2021/11/13 04:53:28;;;;;;;3.45;2.72;;;;;;;3.95;78.70;99119.31;5049602;28;20465;-64
2021/11/13 04:55:54;;;;;;;3.53;2.20;;;;;;;3.95;77.97;99117.47;5049753;28;20088;-63
2021/11/13 04:58:20;;;;;;;3.42;2.00;;;;;;;3.96;77.89;99126.94;5050922;28;20503;-62
2021/11/13 05:00:46;;;;;;;5.18;2.30;;;;;;;3.90;77.83;99130.38;5049720;28;20102;-62
2021/11/13 05:03:12;;;;;;;2.67;2.33;;;;;;;3.85;78.81;99144.09;5016382;28;20037;-63
2021/11/13 05:05:38;;;;;;;5.70;3.45;;;;;;;3.90;79.10;99143.50;5049859;28;20049;-63
2021/11/13 05:08:05;;;;;;;3.20;2.50;;;;;;;3.89;78.49;99147.13;5051031;28;20453;-64
2021/11/13 05:10:30;;;;;;;5.18;2.42;;;;;;;3.86;79.24;99155.41;5049523;28;20449;-64
2021/11/13 05:12:56;;;;;;;5.05;2.50;;;;;;;3.77;79.04;99143.47;5050696;28;20072;-64
2021/11/13 05:15:22;;;;;;;5.55;2.55;;;;;;;3.84;79.33;99170.50;5049420;28;20045;-63
2021/11/13 05:17:50;;;;;;;6.00;2.50;;;;;;;3.80;79.54;99164.84;5050926;28;20052;-62
2021/11/13 05:20:18;;;;;;;4.03;2.40;;;;;;;3.80;78.97;99174.53;5050729;28;20513;-63
2021/11/13 05:22:44;;;;;;;3.95;2.30;;;;;;;3.79;79.04;99176.34;5016173;28;20049;-63
2021/11/13 05:25:12;;;;;;;3.55;2.40;;;;;;;3.80;79.55;99182.41;5050873;28;20037;-64
2021/11/13 05:27:38;;;;;;;3.42;2.60;;;;;;;3.81;79.32;99187.44;5050682;28;20041;-63
2021/11/13 05:30:06;;;;;;;5.28;2.97;;;;;;;3.83;79.17;99192.50;5051185;28;20398;-62
2021/11/13 05:32:32;;;;;;;3.35;2.45;;;;;;;3.91;78.21;99191.50;5032589;28;20041;-62
2021/11/13 05:34:58;;;;;;;2.65;2.22;;;;;;;3.90;78.90;99205.63;5049444;28;20064;-63
2021/11/13 05:37:24;;;;;;;5.07;3.10;;;;;;;3.91;78.68;99212.47;5050007;28;20048;-63
2021/11/13 05:39:50;;;;;;;3.80;2.83;;;;;;;3.90;78.96;99216.91;5054726;28;20037;-63
2021/11/13 05:42:16;;;;;;;4.03;2.92;;;;;;;3.92;78.38;99220.16;5053222;28;20506;-64
2021/11/13 05:44:43;;;;;;;5.85;3.70;;;;;;;3.91;78.01;99215.09;5053954;28;20049;-64
2021/11/13 05:47:09;;;;;;;4.95;2.88;;;;;;;3.92;78.36;99230.66;5054646;28;20052;-63
2021/11/13 05:49:35;;;;;;;4.80;2.95;;;;;;;4.01;77.88;99239.13;5052728;28;20041;-64
2021/11/13 05:52:01;;;;;;;5.93;3.08;;;;;;;4.06;78.00;99236.75;5054598;28;20056;-63
2021/11/13 05:54:26;;;;;;;3.10;2.50;;;;;;;4.01;77.51;99239.94;5053905;28;20460;-64
2021/11/13 05:56:52;;;;;;;4.80;3.35;;;;;;;4.02;77.81;99244.16;5054599;28;20049;-62
2021/11/13 05:59:18;;;;;;;4.68;3.20;;;;;;;4.05;77.48;99241.16;5052878;28;20513;-65
2021/11/13 06:01:44;;;;;;;2.28;2.08;;;;;;;4.07;76.32;99249.63;5036147;28;20051;-64
2021/11/13 06:04:10;;;;;;;6.68;3.08;;;;;;;4.10;76.72;99249.25;5052645;28;20494;-65
2021/11/13 06:06:36;;;;;;;2.83;2.33;;;;;;;4.04;76.50;99260.53;5052873;28;20045;-61
2021/11/13 06:09:03;;;;;;;3.92;2.53;;;;;;;4.11;76.70;99263.16;5053618;28;20481;-64
2021/11/13 06:11:29;;;;;;;3.53;2.40;;;;;;;4.09;77.12;99273.88;5052586;28;20041;-63
2021/11/13 06:13:54;;;;;;;5.43;3.80;;;;;;;4.13;76.75;99266.41;5053741;28;20048;-66
2021/11/13 06:16:21;;;;;;;2.85;2.28;;;;;;;4.10;76.76;99278.09;5053990;28;20041;-62
2021/11/13 06:18:47;;;;;;;3.47;2.97;;;;;;;4.22;76.79;99282.78;5053445;28;20083;-65
2021/11/13 06:21:13;;;;;;;4.72;3.20;;;;;;;4.15;76.17;99288.00;5053455;28;20045;-65
2021/11/13 06:23:45;;;;;;;5.07;3.70;;;;;;;4.16;76.90;99289.63;5053011;28;20510;-64
2021/11/13 06:26:13;;;;;;;6.57;3.92;;;;;;;4.15;76.84;99295.88;5036258;28;20521;-62
2021/11/13 06:28:39;;;;;;;4.50;3.25;;;;;;;4.13;77.36;99303.13;5046816;28;20110;-64
2021/11/13 06:31:07;;;;;;;3.63;2.80;;;;;;;4.24;76.69;99314.88;5053626;28;20041;-64
2021/11/13 06:33:37;;;;;;;5.03;3.20;;;;;;;4.26;76.40;99312.84;5051682;28;20094;-66
2021/11/13 06:36:03;;;;;;;4.07;3.05;;;;;;;4.20;77.10;99322.31;5051706;28;20494;-64
2021/11/13 06:38:29;;;;;;;4.22;3.33;;;;;;;4.22;76.38;99312.44;5050760;28;20087;-67
2021/11/13 06:40:55;;;;;;;5.13;2.83;;;;;;;4.25;76.61;99324.34;5053077;28;20414;-68
2021/11/13 06:43:21;;;;;;;3.67;2.85;;;;;;;4.14;77.04;99330.97;5052140;28;20049;-67
2021/11/13 06:45:48;;;;;;;2.78;2.28;;;;;;;4.20;76.24;99330.19;5053027;28;20048;-68
2021/11/13 06:48:13;;;;;;;3.75;2.92;;;;;;;4.22;77.20;99332.63;5052927;28;20037;-66
2021/11/13 06:50:39;;;;;;;5.60;2.78;;;;;;;4.24;76.81;99344.53;5052150;28;20086;-67
2021/11/13 06:53:05;;;;;;;5.57;2.92;;;;;;;4.27;76.48;99343.34;5052465;28;20040;-69
2021/11/13 06:55:31;;;;;;;6.00;3.72;;;;;;;4.30;76.77;99354.25;5051509;28;20182;-66
2021/11/13 06:57:57;;;;;;;4.13;3.13;;;;;;;4.36;76.53;99357.09;5033831;28;20517;-65
2021/11/13 07:00:24;;;;;;;3.80;3.08;;;;;;;4.40;75.97;99353.06;5052601;28;20045;-65
2021/11/13 07:02:50;;;;;;;5.95;3.53;;;;;;;4.42;75.91;99353.69;5051107;28;20574;-65
2021/11/13 07:05:17;;;;;;;4.63;3.20;;;;;;;4.41;75.55;99357.28;5052752;28;20040;-65
2021/11/13 07:07:43;;;;;;;5.45;3.08;;;;;;;4.40;76.02;99374.06;5052567;28;20041;-65
2021/11/13 07:10:12;;;;;;;4.55;3.50;;;;;;;4.41;76.07;99366.00;5051050;28;20313;-64
2021/11/13 07:12:38;;;;;;;3.88;3.17;;;;;;;4.48;75.42;99369.44;5051930;28;20045;-64
2021/11/13 07:15:05;;;;;;;3.88;3.15;;;;;;;4.45;76.09;99367.22;5052188;28;20041;-64
2021/11/13 07:17:31;;;;;;;4.00;2.70;;;;;;;4.39;76.62;99370.63;5050920;28;20036;-66
2021/11/13 07:19:56;;;;;;;5.35;3.15;;;;;;;4.38;75.93;99374.25;5052093;28;20048;-64
2021/11/13 07:22:23;;;;;;;6.35;3.35;;;;;;;4.39;76.16;99375.06;5052683;28;20049;-64
2021/11/13 07:24:49;;;;;;;4.32;3.25;;;;;;;4.40;75.85;99389.81;5051801;28;20148;-64
2021/11/13 07:27:15;;;;;;;6.03;3.10;;;;;;;4.52;76.57;99381.16;5052171;28;20294;-65
2021/11/13 07:29:45;;;;;;;5.30;3.70;;;;;;;4.52;76.46;99391.66;5050017;28;20536;-63
2021/11/13 07:32:12;;;;;;;5.25;3.20;;;;;;;4.60;75.93;99395.13;5051787;28;20056;-63
2021/11/13 07:34:38;;;;;;;3.10;2.17;;;;;;;4.61;75.73;99397.53;5051926;28;20045;-64
2021/11/13 07:37:05;;;;;;;3.28;2.67;;;;;;;4.68;75.47;99398.38;5052352;28;20071;-64
2021/11/13 07:39:31;;;;;;;5.25;3.30;;;;;;;4.72;75.69;99396.16;5033836;28;20040;-63
2021/11/13 07:41:57;;;;;;;5.07;3.85;;;;;;;4.72;76.00;99396.16;5052341;28;20049;-64
2021/11/13 07:44:23;;;;;;;7.18;4.40;;;;;;;4.76;75.96;99402.59;5051282;28;20040;-65
2021/11/13 07:46:48;;;;;;;6.63;3.40;;;;;;;4.86;76.18;99404.88;5052125;28;20114;-63
2021/11/13 07:49:14;;;;;;;6.35;4.05;;;;;;;4.76;75.42;99403.44;5050573;28;20044;-65
2021/11/13 07:51:40;;;;;;;6.63;3.42;;;;;;;4.69;75.33;99407.84;5051827;28;20048;-64
2021/11/13 07:54:06;;;;;;;11.00;6.05;;;;;;;4.75;75.71;99411.50;5050113;28;20045;-66
2021/11/13 07:56:32;;;;;;;3.35;3.05;;;;;;;4.69;74.92;99414.94;5033960;28;20041;-66
2021/11/13 07:58:58;;;;;;;5.55;2.65;;;;;;;4.67;74.65;99415.13;5049685;28;20102;-66
2021/11/13 08:01:24;;;;;;;3.78;2.80;;;;;;;4.70;75.52;99414.72;5050591;28;20115;-65
2021/11/13 08:03:50;;;;;;;4.72;3.17;;;;;;;4.67;75.47;99427.44;5050359;28;20442;-69
2021/11/13 08:06:16;;;;;;;4.85;3.42;;;;;;;4.65;76.01;99432.09;5051771;28;20495;-67
2021/11/13 08:08:42;;;;;;;4.05;3.38;;;;;;;4.79;75.16;99425.84;5051284;28;20045;-68
2021/11/13 08:11:08;;;;;;;6.43;3.80;;;;;;;4.84;75.09;99427.91;5050515;28;20052;-69
2021/11/13 08:13:36;;;;;;;6.30;3.70;;;;;;;4.87;74.13;99433.56;5049343;28;20044;-66
2021/11/13 08:16:02;;;;;;;3.83;2.28;;;;;;;4.86;75.08;99444.28;5050214;28;20045;-66
2021/11/13 08:18:28;;;;;;;3.42;2.22;;;;;;;4.87;74.81;99446.69;5049667;28;20178;-70
2021/11/13 08:20:54;;;;;;;4.38;2.42;;;;;;;4.93;74.26;99453.75;5051382;28;20533;-65
2021/11/13 08:23:19;;;;;;;5.47;3.40;;;;;;;4.98;73.58;99451.34;5050694;28;20088;-65
2021/11/13 08:25:48;;;;;;;4.45;3.22;;;;;;;5.03;73.46;99463.91;5051445;28;20053;-66
2021/11/13 08:28:14;;;;;;;4.10;3.28;;;;;;;4.99;73.81;99463.47;5048926;28;20043;-64
2021/11/13 08:30:40;;;;;;;4.10;3.17;;;;;;;4.91;72.96;99466.31;5050916;28;20135;-66
2021/11/13 08:33:07;;;;;;;5.32;3.85;;;;;;;4.95;74.12;99471.97;5050933;28;20375;-69
2021/11/13 08:35:38;;;;;;;6.32;3.05;;;;;;;5.01;73.76;99469.34;5049866;28;20044;-68
2021/11/13 08:38:05;;;;;;;4.53;2.42;;;;;;;5.10;73.65;99474.44;5050099;28;20514;-67
2021/11/13 08:40:31;;;;;;;4.45;3.05;;;;;;;5.14;72.81;99484.31;5051303;28;20407;-69
2021/11/13 08:42:58;;;;;;;3.17;2.50;;;;;;;5.03;72.97;99484.09;5051252;28;20068;-63
2021/11/13 08:45:24;;;;;;;1.95;1.65;;;;;;;5.01;73.09;99484.31;5049780;28;20102;-63
2021/11/13 08:47:50;;;;;;;3.35;2.50;;;;;;;4.99;73.40;99491.56;5049735;28;20124;-65
2021/11/13 08:50:22;;;;;;;3.80;2.95;;;;;;;5.04;73.08;99481.28;5033227;28;20047;-63
2021/11/13 08:52:50;;;;;;;6.07;3.85;;;;;;;5.08;73.27;99485.13;5051042;28;20045;-65
2021/11/13 08:55:16;;;;;;;2.50;2.03;;;;;;;5.16;72.86;99489.38;5051292;28;20045;-64
2021/11/13 08:57:43;;;;;;;3.15;1.92;;;;;;;5.12;73.96;99496.06;5049879;28;20033;-65
2021/11/13 09:00:12;;;;;;;2.60;1.80;;;;;;;5.21;72.89;99490.41;5051220;28;20549;-64
2021/11/13 09:02:38;;;;;;;2.38;1.60;;;;;;;5.21;72.88;99503.56;5051010;28;20495;-65
2021/11/13 09:05:05;;;;;;;2.47;2.20;;;;;;;5.26;73.07;99496.88;5051004;28;20073;-64
2021/11/13 09:07:31;;;;;;;4.07;2.50;;;;;;;5.23;73.27;99501.53;5049679;28;20052;-64
2021/11/13 09:09:57;;;;;;;2.80;2.10;;;;;;;5.33;73.03;99490.63;5050683;28;20049;-64
2021/11/13 09:12:27;;;;;;;4.10;2.03;;;;;;;5.32;72.68;99507.41;5051346;28;20080;-65
2021/11/13 09:14:59;;;;;;;4.65;2.92;;;;;;;5.36;72.27;99497.31;5054649;28;20040;-64
2021/11/13 09:17:25;;;;;;;3.10;2.78;;;;;;;5.38;72.55;99498.72;5055194;28;20402;-65
2021/11/13 09:19:51;;;;;;;5.82;3.78;;;;;;;5.46;72.80;99506.41;5054362;28;20110;-65
2021/11/13 09:22:18;;;;;;;6.68;4.30;;;;;;;5.53;71.43;99505.59;5037063;28;20091;-65
2021/11/13 09:24:44;;;;;;;6.30;3.88;;;;;;;5.54;71.35;99520.38;5054134;28;20053;-64
2021/11/13 09:27:10;;;;;;;8.00;5.28;;;;;;;5.55;71.61;99517.53;5053145;28;20041;-64
2021/11/13 09:29:36;;;;;;;11.65;6.63;;;;;;;5.63;71.90;99513.91;5052891;28;20120;-63
2021/11/13 09:32:03;;;;;;;12.43;7.35;;;;;;;5.59;71.84;99526.66;5054864;28;20041;-64
2021/11/13 09:34:29;;;;;;;18.52;10.20;;;;;;;5.63;71.43;99522.59;5054329;28;20131;-65
2021/11/13 09:36:55;;;;;;;22.70;10.75;;;;;;;5.57;70.67;99523.41;5054675;28;20501;-64
2021/11/13 09:39:20;;;;;;;17.00;10.98;;;;;;;5.45;72.17;99525.81;5052822;28;20036;-64
2021/11/13 09:41:48;;;;;;;13.27;8.55;;;;;;;5.33;72.11;99535.31;5054303;28;20051;-64
2021/11/13 09:44:14;;;;;;;9.13;5.00;;;;;;;5.23;72.42;99538.34;5054267;28;20045;-65
2021/11/13 09:46:41;;;;;;;6.68;4.53;;;;;;;5.06;72.60;99538.88;5054550;28;20056;-64
2021/11/13 09:49:07;;;;;;;9.43;5.47;;;;;;;4.96;73.63;99547.94;5054036;28;20502;-64
2021/11/13 09:51:34;;;;;;;7.93;4.53;;;;;;;4.99;73.53;99544.91;5054338;28;20060;-64
2021/11/13 09:54:00;;;;;;;7.75;5.20;;;;;;;5.00;73.82;99553.63;5053976;28;20490;-66
2021/11/13 09:56:26;;;;;;;9.13;6.53;;;;;;;5.20;73.33;99554.47;5054459;28;20052;-66
2021/11/13 09:58:52;;;;;;;13.63;8.68;;;;;;;5.32;72.80;99549.44;5054489;28;20045;-65
2021/11/13 10:01:18;;;;;;;14.35;6.70;;;;;;;5.33;72.38;99555.53;5052857;28;20128;-65
2021/11/13 10:03:46;;;;;;;11.57;6.75;;;;;;;5.26;71.83;99559.97;5054047;28;20051;-64
2021/11/13 10:06:13;;;;;;;10.48;5.78;;;;;;;5.17;72.42;99561.94;5054093;28;20044;-64
2021/11/13 10:08:43;;;;;;;9.82;6.28;;;;;;;5.23;71.82;99564.63;5053923;28;20451;-64
2021/11/13 10:11:12;;;;;;;10.68;5.93;;;;;;;5.22;71.93;99575.31;5053897;28;20048;-65
2021/11/13 10:13:41;;;;;;;9.73;5.53;;;;;;;5.34;71.82;99575.56;5053414;28;20491;-65
2021/11/13 10:16:10;;;;;;;9.50;5.63;;;;;;;5.21;72.61;99590.28;5053941;28;20048;-64
2021/11/13 10:18:42;;;;;;;6.93;4.78;;;;;;;5.20;72.25;99593.91;5035584;28;20037;-64
2021/11/13 10:21:17;;;;;;;5.85;3.75;;;;;;;5.04;72.03;99596.88;5052716;28;20080;-65
2021/11/13 10:23:48;;;;;;;8.65;4.65;;;;;;;4.95;71.91;99608.56;5052694;28;20069;-64
2021/11/13 10:26:18;;;;;;;;;;;;;;;4.92;72.67;99606.34;5053842;28;20095;-65
2021/11/13 10:28:52;;;;;;;7.45;4.50;;;;;;;4.97;72.78;99611.78;5051936;28;20028;-64
2021/11/13 10:31:19;;;;;;;7.97;5.38;;;;;;;5.03;72.58;99608.41;5053614;28;20037;-64
2021/11/13 10:33:46;;;;;;;4.90;3.50;;;;;;;4.99;71.88;99621.09;5053414;28;20481;-63
2021/11/13 10:36:13;;;;;;;6.25;4.15;;;;;;;5.14;71.80;99618.34;5053458;28;20045;-64
2021/11/13 10:38:43;;;;;;;4.60;3.67;;;;;;;5.19;71.02;99623.81;5051788;28;20045;-63
2021/11/13 10:41:11;;;;;;;4.07;3.33;;;;;;;5.09;72.61;99633.06;5052345;28;20079;-65
2021/11/13 10:43:42;;;;;;;5.93;2.85;;;;;;;5.03;71.79;99637.31;5052069;28;20049;-62
2021/11/13 10:46:11;;;;;;;4.43;2.60;;;;;;;4.90;72.46;99632.78;5051978;28;20060;-64
2021/11/13 10:48:41;;;;;;;6.28;2.80;;;;;;;4.91;72.85;99638.84;5053185;28;20424;-64
2021/11/13 10:51:13;;;;;;;6.53;2.70;;;;;;;4.87;73.41;99643.69;5053283;28;20106;-64
2021/11/13 10:53:42;;;;;;;5.30;2.80;;;;;;;4.93;72.57;99647.34;5052756;28;20565;-63
2021/11/13 10:56:19;;;;;;;3.92;2.70;;;;;;;4.84;72.85;99646.69;5053155;28;20045;-63
2021/11/13 10:58:55;;;;;;;5.05;3.33;;;;;;;4.85;72.66;99655.38;5052815;28;20131;-64
2021/11/13 11:01:45;;;;;;;4.32;2.80;;;;;;;4.93;73.22;99653.41;5051683;28;20053;-66
2021/11/13 11:04:16;;;;;;;3.90;2.88;;;;;;;4.94;73.30;99654.22;5052543;28;20114;-63
2021/11/13 11:07:03;;;;;;;3.00;2.42;;;;;;;4.89;72.25;99660.06;5052833;28;20041;-63
2021/11/13 11:09:34;;;;;;;6.03;3.75;;;;;;;4.87;72.57;99656.00;5052263;28;20044;-64
2021/11/13 11:12:14;;;;;;;2.70;2.00;;;;;;;4.72;72.28;99670.06;5051510;28;20094;-64
2021/11/13 11:14:49;;;;;;;4.35;3.00;;;;;;;4.58;73.08;99663.09;5014728;28;20044;-64
2021/11/13 11:17:17;;;;;;;4.25;2.85;;;;;;;4.63;73.43;99670.41;5032639;28;20033;-63
2021/11/13 11:19:47;;;;;;;4.80;3.08;;;;;;;4.65;72.37;99678.91;5050483;28;20044;-65
2021/11/13 11:22:14;;;;;;;7.70;3.70;;;;;;;4.74;72.99;99672.50;5052893;28;20119;-64
2021/11/13 11:24:49;;;;;;;11.23;6.57;;;;;;;4.74;72.90;99681.19;5052788;28;20533;-64
2021/11/13 11:27:24;;;;;;;5.85;4.13;;;;;;;4.79;72.57;99683.22;5052797;28;20048;-64
2021/11/13 11:29:57;;;;;;;6.38;3.88;;;;;;;4.72;74.13;99688.44;5050968;28;20047;-65
2021/11/13 11:32:40;;;;;;;4.22;2.90;;;;;;;4.70;73.47;99679.13;5050625;28;20055;-64
2021/11/13 11:35:15;;;;;;;4.25;3.30;;;;;;;4.57;73.79;99690.34;5032712;28;20041;-65
2021/11/13 11:37:46;;;;;;;5.90;4.03;;;;;;;4.60;74.22;99689.16;5033200;28;20084;-66
2021/11/13 11:40:17;;;;;;;6.03;4.47;;;;;;;4.68;73.96;99686.41;5034516;28;20543;-65
2021/11/13 11:42:43;;;;;;;;;;;;;;;4.73;74.63;99686.63;5052325;28;20041;-63